sensor_id;sensor_type;location;lat;lon;timestamp;P1;durP1;ratioP1;P2;durP2;ratioP2
23866;SDS011;12114;53.404;-1.502;2023-08-21T00:00:52;8.38;;;2.20;;
23866;SDS011;12114;53.404;-1.502;2023-08-21T00:03:36;9.35;;;2.58;;
23866;SDS011;12114;53.404;-1.502;2023-08-21T00:06:20;7.57;;;2.40;;
23866;SDS011;12114;53.404;-1.502;2023-08-21T00:09:04;5.28;;;2.20;;
23866;SDS011;12114;53.404;-1.502;2023-08-21T00:11:48;7.97;;;2.38;;
23866;SDS011;12114;53.404;-1.502;2023-08-21T00:14:32;7.03;;;2.65;;
23866;SDS011;12114;53.404;-1.502;2023-08-21T00:17:15;6.18;;;2.25;;
23866;SDS011;12114;53.404;-1.502;2023-08-21T00:19:59;6.22;;;2.85;;
23866;SDS011;12114;53.404;-1.502;2023-08-21T00:22:43;6.60;;;2.67;;
23866;SDS011;12114;53.404;-1.502;2023-08-21T00:25:27;11.55;;;2.65;;
23866;SDS011;12114;53.404;-1.502;2023-08-21T00:28:11;6.43;;;2.40;;
23866;SDS011;12114;53.404;-1.502;2023-08-21T00:31:02;4.97;;;2.40;;
23866;SDS011;12114;53.404;-1.502;2023-08-21T00:33:46;10.10;;;2.45;;
23866;SDS011;12114;53.404;-1.502;2023-08-21T00:36:30;4.90;;;2.08;;
23866;SDS011;12114;53.404;-1.502;2023-08-21T00:39:14;6.57;;;2.20;;
23866;SDS011;12114;53.404;-1.502;2023-08-21T00:41:58;6.68;;;2.20;;
23866;SDS011;12114;53.404;-1.502;2023-08-21T00:44:42;5.25;;;2.25;;
23866;SDS011;12114;53.404;-1.502;2023-08-21T00:47:26;7.18;;;2.25;;
23866;SDS011;12114;53.404;-1.502;2023-08-21T00:50:10;8.85;;;2.58;;
23866;SDS011;12114;53.404;-1.502;2023-08-21T00:52:58;6.28;;;2.00;;
23866;SDS011;12114;53.404;-1.502;2023-08-21T00:55:42;7.90;;;2.60;;
23866;SDS011;12114;53.404;-1.502;2023-08-21T00:58:26;6.05;;;2.28;;
23866;SDS011;12114;53.404;-1.502;2023-08-21T01:01:11;3.50;;;1.95;;
23866;SDS011;12114;53.404;-1.502;2023-08-21T01:03:56;7.45;;;2.28;;
23866;SDS011;12114;53.404;-1.502;2023-08-21T01:06:40;8.55;;;2.67;;
23866;SDS011;12114;53.404;-1.502;2023-08-21T01:12:22;6.35;;;2.88;;
23866;SDS011;12114;53.404;-1.502;2023-08-21T01:15:07;9.30;;;2.42;;
23866;SDS011;12114;53.404;-1.502;2023-08-21T01:17:53;8.10;;;2.60;;
23866;SDS011;12114;53.404;-1.502;2023-08-21T01:20:37;9.35;;;3.17;;
23866;SDS011;12114;53.404;-1.502;2023-08-21T01:23:27;10.43;;;2.92;;
23866;SDS011;12114;53.404;-1.502;2023-08-21T01:26:11;8.90;;;2.60;;
23866;SDS011;12114;53.404;-1.502;2023-08-21T01:28:55;9.48;;;2.42;;
23866;SDS011;12114;53.404;-1.502;2023-08-21T01:31:39;10.30;;;2.60;;
23866;SDS011;12114;53.404;-1.502;2023-08-21T01:34:26;8.00;;;2.70;;
23866;SDS011;12114;53.404;-1.502;2023-08-21T01:37:12;7.32;;;2.58;;
23866;SDS011;12114;53.404;-1.502;2023-08-21T01:39:59;6.65;;;2.50;;
23866;SDS011;12114;53.404;-1.502;2023-08-21T01:42:46;9.13;;;2.80;;
23866;SDS011;12114;53.404;-1.502;2023-08-21T01:45:30;6.45;;;2.75;;
23866;SDS011;12114;53.404;-1.502;2023-08-21T01:48:14;6.30;;;2.55;;
23866;SDS011;12114;53.404;-1.502;2023-08-21T01:51:00;13.73;;;2.70;;
23866;SDS011;12114;53.404;-1.502;2023-08-21T01:53:44;8.07;;;2.88;;
23866;SDS011;12114;53.404;-1.502;2023-08-21T01:56:28;7.80;;;2.72;;
23866;SDS011;12114;53.404;-1.502;2023-08-21T01:59:12;5.55;;;1.90;;
23866;SDS011;12114;53.404;-1.502;2023-08-21T02:01:56;7.88;;;2.28;;
23866;SDS011;12114;53.404;-1.502;2023-08-21T02:04:40;9.32;;;3.47;;
23866;SDS011;12114;53.404;-1.502;2023-08-21T02:07:24;8.15;;;2.53;;
23866;SDS011;12114;53.404;-1.502;2023-08-21T02:10:08;9.52;;;2.67;;
23866;SDS011;12114;53.404;-1.502;2023-08-21T02:12:52;8.77;;;2.72;;
23866;SDS011;12114;53.404;-1.502;2023-08-21T02:15:38;8.90;;;2.75;;
23866;SDS011;12114;53.404;-1.502;2023-08-21T02:18:22;9.32;;;3.17;;
23866;SDS011;12114;53.404;-1.502;2023-08-21T02:21:06;7.88;;;3.05;;
23866;SDS011;12114;53.404;-1.502;2023-08-21T02:23:53;14.65;;;3.42;;
23866;SDS011;12114;53.404;-1.502;2023-08-21T02:26:37;11.27;;;3.25;;
23866;SDS011;12114;53.404;-1.502;2023-08-21T02:29:21;9.02;;;3.13;;
23866;SDS011;12114;53.404;-1.502;2023-08-21T02:32:05;9.05;;;3.05;;
23866;SDS011;12114;53.404;-1.502;2023-08-21T02:34:49;6.28;;;3.25;;
23866;SDS011;12114;53.404;-1.502;2023-08-21T02:37:33;10.32;;;2.83;;
23866;SDS011;12114;53.404;-1.502;2023-08-21T02:40:17;7.80;;;2.90;;
23866;SDS011;12114;53.404;-1.502;2023-08-21T02:43:01;12.00;;;3.47;;
23866;SDS011;12114;53.404;-1.502;2023-08-21T02:45:45;15.68;;;3.58;;
23866;SDS011;12114;53.404;-1.502;2023-08-21T02:48:29;7.53;;;3.40;;
23866;SDS011;12114;53.404;-1.502;2023-08-21T02:51:13;11.43;;;3.45;;
23866;SDS011;12114;53.404;-1.502;2023-08-21T02:53:57;10.70;;;4.22;;
23866;SDS011;12114;53.404;-1.502;2023-08-21T02:56:41;13.38;;;4.20;;
23866;SDS011;12114;53.404;-1.502;2023-08-21T02:59:24;11.88;;;4.68;;
23866;SDS011;12114;53.404;-1.502;2023-08-21T03:02:08;12.25;;;4.32;;
23866;SDS011;12114;53.404;-1.502;2023-08-21T03:04:52;9.25;;;4.00;;
23866;SDS011;12114;53.404;-1.502;2023-08-21T03:07:36;10.68;;;5.03;;
23866;SDS011;12114;53.404;-1.502;2023-08-21T03:10:21;9.93;;;4.47;;
23866;SDS011;12114;53.404;-1.502;2023-08-21T03:15:51;13.18;;;5.68;;
23866;SDS011;12114;53.404;-1.502;2023-08-21T03:18:45;8.48;;;4.60;;
23866;SDS011;12114;53.404;-1.502;2023-08-21T03:21:36;12.35;;;5.15;;
23866;SDS011;12114;53.404;-1.502;2023-08-21T03:24:20;12.38;;;5.22;;
23866;SDS011;12114;53.404;-1.502;2023-08-21T03:27:04;14.93;;;5.15;;
23866;SDS011;12114;53.404;-1.502;2023-08-21T03:29:48;10.70;;;5.20;;
23866;SDS011;12114;53.404;-1.502;2023-08-21T03:32:33;13.18;;;5.03;;
23866;SDS011;12114;53.404;-1.502;2023-08-21T03:35:17;11.50;;;4.60;;
23866;SDS011;12114;53.404;-1.502;2023-08-21T03:38:00;12.07;;;5.70;;
23866;SDS011;12114;53.404;-1.502;2023-08-21T03:40:45;14.40;;;5.40;;
23866;SDS011;12114;53.404;-1.502;2023-08-21T03:43:28;14.88;;;5.20;;
23866;SDS011;12114;53.404;-1.502;2023-08-21T03:46:13;10.98;;;5.18;;
23866;SDS011;12114;53.404;-1.502;2023-08-21T03:48:56;14.63;;;5.10;;
23866;SDS011;12114;53.404;-1.502;2023-08-21T03:51:40;12.95;;;5.47;;
23866;SDS011;12114;53.404;-1.502;2023-08-21T03:54:24;12.07;;;5.30;;
23866;SDS011;12114;53.404;-1.502;2023-08-21T03:57:08;13.30;;;5.53;;
23866;SDS011;12114;53.404;-1.502;2023-08-21T03:59:53;11.48;;;4.95;;
23866;SDS011;12114;53.404;-1.502;2023-08-21T04:02:37;13.45;;;5.20;;
23866;SDS011;12114;53.404;-1.502;2023-08-21T04:05:21;12.15;;;5.18;;
23866;SDS011;12114;53.404;-1.502;2023-08-21T04:08:05;13.23;;;5.18;;
23866;SDS011;12114;53.404;-1.502;2023-08-21T04:10:49;11.85;;;5.07;;
23866;SDS011;12114;53.404;-1.502;2023-08-21T04:13:32;12.48;;;5.50;;
23866;SDS011;12114;53.404;-1.502;2023-08-21T04:16:17;11.43;;;5.38;;
23866;SDS011;12114;53.404;-1.502;2023-08-21T04:19:01;15.30;;;5.72;;
23866;SDS011;12114;53.404;-1.502;2023-08-21T04:21:45;11.57;;;5.20;;
23866;SDS011;12114;53.404;-1.502;2023-08-21T04:24:29;14.20;;;5.15;;
23866;SDS011;12114;53.404;-1.502;2023-08-21T04:27:13;11.50;;;5.45;;
23866;SDS011;12114;53.404;-1.502;2023-08-21T04:29:57;13.18;;;4.30;;
23866;SDS011;12114;53.404;-1.502;2023-08-21T04:32:41;12.55;;;4.93;;
23866;SDS011;12114;53.404;-1.502;2023-08-21T04:35:25;11.38;;;5.00;;
23866;SDS011;12114;53.404;-1.502;2023-08-21T04:38:09;13.50;;;4.72;;
23866;SDS011;12114;53.404;-1.502;2023-08-21T04:40:53;12.75;;;4.80;;
23866;SDS011;12114;53.404;-1.502;2023-08-21T04:43:37;12.80;;;4.55;;
23866;SDS011;12114;53.404;-1.502;2023-08-21T04:46:21;11.50;;;4.57;;
23866;SDS011;12114;53.404;-1.502;2023-08-21T04:49:05;14.13;;;4.68;;
23866;SDS011;12114;53.404;-1.502;2023-08-21T04:51:49;11.77;;;4.05;;
23866;SDS011;12114;53.404;-1.502;2023-08-21T04:54:33;10.48;;;4.28;;
23866;SDS011;12114;53.404;-1.502;2023-08-21T04:57:18;10.68;;;4.45;;
23866;SDS011;12114;53.404;-1.502;2023-08-21T05:00:02;8.75;;;4.30;;
23866;SDS011;12114;53.404;-1.502;2023-08-21T05:02:47;9.77;;;4.72;;
23866;SDS011;12114;53.404;-1.502;2023-08-21T05:05:31;14.65;;;4.68;;
23866;SDS011;12114;53.404;-1.502;2023-08-21T05:08:15;15.27;;;4.85;;
23866;SDS011;12114;53.404;-1.502;2023-08-21T05:11:00;12.82;;;4.95;;
23866;SDS011;12114;53.404;-1.502;2023-08-21T05:13:44;12.45;;;5.00;;
23866;SDS011;12114;53.404;-1.502;2023-08-21T05:16:28;8.77;;;4.93;;
23866;SDS011;12114;53.404;-1.502;2023-08-21T05:19:12;11.30;;;5.13;;
23866;SDS011;12114;53.404;-1.502;2023-08-21T05:21:56;9.60;;;4.60;;
23866;SDS011;12114;53.404;-1.502;2023-08-21T05:24:40;11.80;;;4.80;;
23866;SDS011;12114;53.404;-1.502;2023-08-21T05:27:25;12.88;;;5.18;;
23866;SDS011;12114;53.404;-1.502;2023-08-21T05:30:09;9.35;;;4.57;;
23866;SDS011;12114;53.404;-1.502;2023-08-21T05:32:54;8.85;;;4.80;;
23866;SDS011;12114;53.404;-1.502;2023-08-21T05:35:38;10.10;;;4.40;;
23866;SDS011;12114;53.404;-1.502;2023-08-21T05:38:22;13.95;;;4.80;;
23866;SDS011;12114;53.404;-1.502;2023-08-21T05:41:06;9.85;;;5.35;;
23866;SDS011;12114;53.404;-1.502;2023-08-21T05:43:50;9.27;;;4.72;;
23866;SDS011;12114;53.404;-1.502;2023-08-21T05:46:34;10.40;;;5.00;;
23866;SDS011;12114;53.404;-1.502;2023-08-21T05:49:18;10.93;;;4.75;;
23866;SDS011;12114;53.404;-1.502;2023-08-21T05:52:02;12.05;;;4.95;;
23866;SDS011;12114;53.404;-1.502;2023-08-21T05:54:46;9.60;;;4.05;;
23866;SDS011;12114;53.404;-1.502;2023-08-21T05:57:30;12.48;;;4.45;;
23866;SDS011;12114;53.404;-1.502;2023-08-21T06:00:14;6.30;;;3.95;;
23866;SDS011;12114;53.404;-1.502;2023-08-21T06:02:58;10.90;;;4.43;;
23866;SDS011;12114;53.404;-1.502;2023-08-21T06:05:42;8.70;;;4.28;;
23866;SDS011;12114;53.404;-1.502;2023-08-21T06:08:27;7.95;;;4.07;;
23866;SDS011;12114;53.404;-1.502;2023-08-21T06:11:11;13.98;;;5.80;;
23866;SDS011;12114;53.404;-1.502;2023-08-21T06:13:55;9.48;;;4.47;;
23866;SDS011;12114;53.404;-1.502;2023-08-21T06:16:39;9.05;;;3.83;;
23866;SDS011;12114;53.404;-1.502;2023-08-21T06:19:23;7.10;;;4.03;;
23866;SDS011;12114;53.404;-1.502;2023-08-21T06:22:07;10.30;;;3.92;;
23866;SDS011;12114;53.404;-1.502;2023-08-21T06:24:51;13.00;;;3.65;;
23866;SDS011;12114;53.404;-1.502;2023-08-21T06:27:35;16.23;;;3.45;;
23866;SDS011;12114;53.404;-1.502;2023-08-21T06:30:19;13.93;;;3.67;;
23866;SDS011;12114;53.404;-1.502;2023-08-21T06:33:03;14.55;;;3.40;;
23866;SDS011;12114;53.404;-1.502;2023-08-21T06:35:47;12.13;;;2.65;;
23866;SDS011;12114;53.404;-1.502;2023-08-21T06:38:31;11.85;;;3.03;;
23866;SDS011;12114;53.404;-1.502;2023-08-21T06:41:15;9.60;;;2.60;;
23866;SDS011;12114;53.404;-1.502;2023-08-21T06:43:59;13.02;;;2.40;;
23866;SDS011;12114;53.404;-1.502;2023-08-21T06:46:43;10.43;;;2.40;;
23866;SDS011;12114;53.404;-1.502;2023-08-21T06:49:26;5.88;;;1.80;;
23866;SDS011;12114;53.404;-1.502;2023-08-21T06:52:10;5.93;;;1.73;;
23866;SDS011;12114;53.404;-1.502;2023-08-21T06:54:54;11.38;;;2.22;;
23866;SDS011;12114;53.404;-1.502;2023-08-21T06:57:38;8.55;;;1.90;;
23866;SDS011;12114;53.404;-1.502;2023-08-21T07:00:22;7.75;;;2.03;;
23866;SDS011;12114;53.404;-1.502;2023-08-21T07:03:06;7.75;;;1.90;;
23866;SDS011;12114;53.404;-1.502;2023-08-21T07:05:57;7.15;;;1.90;;
23866;SDS011;12114;53.404;-1.502;2023-08-21T07:08:41;5.90;;;1.98;;
23866;SDS011;12114;53.404;-1.502;2023-08-21T07:11:25;10.73;;;1.83;;
23866;SDS011;12114;53.404;-1.502;2023-08-21T07:14:10;8.27;;;1.70;;
23866;SDS011;12114;53.404;-1.502;2023-08-21T07:16:56;8.15;;;1.60;;
23866;SDS011;12114;53.404;-1.502;2023-08-21T07:19:40;7.18;;;1.85;;
23866;SDS011;12114;53.404;-1.502;2023-08-21T07:22:24;8.35;;;1.67;;
23866;SDS011;12114;53.404;-1.502;2023-08-21T07:25:08;7.82;;;1.42;;
23866;SDS011;12114;53.404;-1.502;2023-08-21T07:27:52;9.52;;;2.22;;
23866;SDS011;12114;53.404;-1.502;2023-08-21T07:30:39;9.20;;;1.90;;
23866;SDS011;12114;53.404;-1.502;2023-08-21T07:33:23;5.90;;;1.80;;
23866;SDS011;12114;53.404;-1.502;2023-08-21T07:36:07;7.07;;;1.40;;
23866;SDS011;12114;53.404;-1.502;2023-08-21T07:38:51;9.18;;;1.75;;
23866;SDS011;12114;53.404;-1.502;2023-08-21T07:41:35;6.90;;;1.40;;
23866;SDS011;12114;53.404;-1.502;2023-08-21T07:44:19;5.18;;;1.40;;
23866;SDS011;12114;53.404;-1.502;2023-08-21T07:47:03;7.88;;;1.63;;
23866;SDS011;12114;53.404;-1.502;2023-08-21T07:49:47;7.90;;;1.77;;
23866;SDS011;12114;53.404;-1.502;2023-08-21T07:52:31;8.57;;;1.60;;
23866;SDS011;12114;53.404;-1.502;2023-08-21T07:55:15;6.47;;;1.40;;
23866;SDS011;12114;53.404;-1.502;2023-08-21T07:57:59;7.22;;;1.15;;
23866;SDS011;12114;53.404;-1.502;2023-08-21T08:00:42;4.72;;;1.27;;
23866;SDS011;12114;53.404;-1.502;2023-08-21T08:03:27;8.45;;;1.40;;
23866;SDS011;12114;53.404;-1.502;2023-08-21T08:06:11;6.38;;;1.15;;
23866;SDS011;12114;53.404;-1.502;2023-08-21T08:08:55;7.55;;;1.10;;
23866;SDS011;12114;53.404;-1.502;2023-08-21T08:11:39;4.13;;;1.23;;
23866;SDS011;12114;53.404;-1.502;2023-08-21T08:14:23;8.13;;;1.50;;
23866;SDS011;12114;53.404;-1.502;2023-08-21T08:17:07;7.35;;;1.45;;
23866;SDS011;12114;53.404;-1.502;2023-08-21T08:19:51;7.20;;;1.35;;
23866;SDS011;12114;53.404;-1.502;2023-08-21T08:22:35;6.93;;;1.27;;
23866;SDS011;12114;53.404;-1.502;2023-08-21T08:25:19;8.25;;;1.50;;
23866;SDS011;12114;53.404;-1.502;2023-08-21T08:28:03;5.88;;;1.20;;
23866;SDS011;12114;53.404;-1.502;2023-08-21T08:30:47;5.18;;;1.20;;
23866;SDS011;12114;53.404;-1.502;2023-08-21T08:33:31;4.95;;;1.08;;
23866;SDS011;12114;53.404;-1.502;2023-08-21T08:36:15;7.07;;;1.40;;
23866;SDS011;12114;53.404;-1.502;2023-08-21T08:38:59;6.22;;;1.15;;
23866;SDS011;12114;53.404;-1.502;2023-08-21T08:41:58;6.72;;;1.20;;
23866;SDS011;12114;53.404;-1.502;2023-08-21T08:44:46;6.95;;;1.00;;
23866;SDS011;12114;53.404;-1.502;2023-08-21T08:47:31;5.25;;;1.30;;
23866;SDS011;12114;53.404;-1.502;2023-08-21T08:50:16;8.43;;;1.30;;
23866;SDS011;12114;53.404;-1.502;2023-08-21T08:53:00;5.53;;;1.23;;
23866;SDS011;12114;53.404;-1.502;2023-08-21T08:55:44;9.95;;;1.55;;
23866;SDS011;12114;53.404;-1.502;2023-08-21T08:58:29;6.18;;;1.88;;
23866;SDS011;12114;53.404;-1.502;2023-08-21T09:01:12;5.70;;;1.27;;
23866;SDS011;12114;53.404;-1.502;2023-08-21T09:03:56;7.03;;;0.98;;
23866;SDS011;12114;53.404;-1.502;2023-08-21T09:06:40;4.65;;;0.93;;
23866;SDS011;12114;53.404;-1.502;2023-08-21T09:09:27;6.05;;;1.33;;
23866;SDS011;12114;53.404;-1.502;2023-08-21T09:15:08;7.47;;;1.00;;
23866;SDS011;12114;53.404;-1.502;2023-08-21T09:17:55;6.47;;;1.30;;
23866;SDS011;12114;53.404;-1.502;2023-08-21T09:20:39;7.07;;;1.27;;
23866;SDS011;12114;53.404;-1.502;2023-08-21T09:23:23;4.60;;;1.20;;
23866;SDS011;12114;53.404;-1.502;2023-08-21T09:26:07;6.03;;;1.20;;
23866;SDS011;12114;53.404;-1.502;2023-08-21T09:28:51;10.35;;;1.40;;
23866;SDS011;12114;53.404;-1.502;2023-08-21T09:31:36;6.82;;;1.00;;
23866;SDS011;12114;53.404;-1.502;2023-08-21T09:34:20;6.93;;;1.25;;
23866;SDS011;12114;53.404;-1.502;2023-08-21T09:37:07;13.32;;;1.40;;
23866;SDS011;12114;53.404;-1.502;2023-08-21T09:39:51;8.70;;;1.70;;
23866;SDS011;12114;53.404;-1.502;2023-08-21T09:42:35;5.38;;;1.40;;
23866;SDS011;12114;53.404;-1.502;2023-08-21T09:45:23;9.15;;;1.42;;
23866;SDS011;12114;53.404;-1.502;2023-08-21T09:48:07;9.18;;;1.38;;
23866;SDS011;12114;53.404;-1.502;2023-08-21T09:50:51;8.13;;;1.10;;
23866;SDS011;12114;53.404;-1.502;2023-08-21T09:53:35;4.97;;;1.15;;
23866;SDS011;12114;53.404;-1.502;2023-08-21T09:56:19;7.50;;;1.15;;
23866;SDS011;12114;53.404;-1.502;2023-08-21T09:59:03;4.78;;;1.27;;
23866;SDS011;12114;53.404;-1.502;2023-08-21T10:01:47;6.32;;;1.35;;
23866;SDS011;12114;53.404;-1.502;2023-08-21T10:04:32;6.85;;;1.50;;
23866;SDS011;12114;53.404;-1.502;2023-08-21T10:07:21;8.85;;;1.95;;
23866;SDS011;12114;53.404;-1.502;2023-08-21T10:10:07;6.65;;;1.15;;
23866;SDS011;12114;53.404;-1.502;2023-08-21T10:12:51;5.03;;;1.20;;
23866;SDS011;12114;53.404;-1.502;2023-08-21T10:15:36;3.70;;;1.13;;
23866;SDS011;12114;53.404;-1.502;2023-08-21T10:18:22;8.93;;;1.33;;
23866;SDS011;12114;53.404;-1.502;2023-08-21T10:23:54;4.70;;;1.30;;
23866;SDS011;12114;53.404;-1.502;2023-08-21T10:26:38;7.20;;;1.38;;
23866;SDS011;12114;53.404;-1.502;2023-08-21T10:29:26;8.23;;;1.20;;
23866;SDS011;12114;53.404;-1.502;2023-08-21T10:32:10;5.32;;;1.15;;
23866;SDS011;12114;53.404;-1.502;2023-08-21T10:34:54;6.50;;;1.45;;
23866;SDS011;12114;53.404;-1.502;2023-08-21T10:37:50;4.75;;;1.10;;
23866;SDS011;12114;53.404;-1.502;2023-08-21T10:43:46;4.82;;;1.20;;
23866;SDS011;12114;53.404;-1.502;2023-08-21T10:46:29;2.15;;;0.90;;
23866;SDS011;12114;53.404;-1.502;2023-08-21T10:49:33;5.80;;;1.00;;
23866;SDS011;12114;53.404;-1.502;2023-08-21T10:52:20;7.03;;;1.10;;
23866;SDS011;12114;53.404;-1.502;2023-08-21T10:55:05;5.10;;;1.15;;
23866;SDS011;12114;53.404;-1.502;2023-08-21T10:57:49;5.90;;;1.10;;
23866;SDS011;12114;53.404;-1.502;2023-08-21T11:00:33;7.32;;;1.10;;
23866;SDS011;12114;53.404;-1.502;2023-08-21T11:03:17;4.13;;;0.90;;
23866;SDS011;12114;53.404;-1.502;2023-08-21T11:08:46;4.15;;;0.90;;
23866;SDS011;12114;53.404;-1.502;2023-08-21T11:11:30;7.57;;;1.25;;
23866;SDS011;12114;53.404;-1.502;2023-08-21T11:14:14;2.45;;;1.00;;
23866;SDS011;12114;53.404;-1.502;2023-08-21T11:16:59;9.32;;;1.30;;
23866;SDS011;12114;53.404;-1.502;2023-08-21T11:19:43;6.00;;;1.15;;
23866;SDS011;12114;53.404;-1.502;2023-08-21T11:22:31;3.55;;;0.85;;
23866;SDS011;12114;53.404;-1.502;2023-08-21T11:25:15;3.22;;;0.90;;
23866;SDS011;12114;53.404;-1.502;2023-08-21T11:28:02;5.35;;;1.23;;
23866;SDS011;12114;53.404;-1.502;2023-08-21T11:30:46;2.88;;;0.85;;
23866;SDS011;12114;53.404;-1.502;2023-08-21T11:33:30;4.00;;;0.80;;
23866;SDS011;12114;53.404;-1.502;2023-08-21T11:36:15;2.83;;;0.73;;
23866;SDS011;12114;53.404;-1.502;2023-08-21T11:38:59;4.60;;;0.90;;
23866;SDS011;12114;53.404;-1.502;2023-08-21T11:41:54;3.53;;;0.70;;
23866;SDS011;12114;53.404;-1.502;2023-08-21T11:44:41;2.55;;;0.63;;
23866;SDS011;12114;53.404;-1.502;2023-08-21T11:47:30;1.55;;;0.57;;
23866;SDS011;12114;53.404;-1.502;2023-08-21T11:50:14;3.92;;;0.65;;
23866;SDS011;12114;53.404;-1.502;2023-08-21T11:52:59;4.78;;;0.82;;
23866;SDS011;12114;53.404;-1.502;2023-08-21T11:55:43;3.55;;;0.82;;
23866;SDS011;12114;53.404;-1.502;2023-08-21T11:58:28;3.00;;;0.60;;
23866;SDS011;12114;53.404;-1.502;2023-08-21T12:01:19;2.95;;;0.90;;
23866;SDS011;12114;53.404;-1.502;2023-08-21T12:04:13;4.18;;;1.00;;
23866;SDS011;12114;53.404;-1.502;2023-08-21T12:06:58;2.63;;;0.85;;
23866;SDS011;12114;53.404;-1.502;2023-08-21T12:09:45;3.78;;;1.00;;
23866;SDS011;12114;53.404;-1.502;2023-08-21T12:12:30;4.10;;;1.00;;
23866;SDS011;12114;53.404;-1.502;2023-08-21T12:15:14;4.63;;;1.00;;
23866;SDS011;12114;53.404;-1.502;2023-08-21T12:17:58;3.10;;;1.00;;
23866;SDS011;12114;53.404;-1.502;2023-08-21T12:20:42;4.47;;;0.98;;
23866;SDS011;12114;53.404;-1.502;2023-08-21T12:23:26;3.83;;;1.00;;
23866;SDS011;12114;53.404;-1.502;2023-08-21T12:26:10;3.22;;;0.82;;
23866;SDS011;12114;53.404;-1.502;2023-08-21T12:28:54;6.10;;;1.00;;
23866;SDS011;12114;53.404;-1.502;2023-08-21T12:31:37;4.22;;;0.95;;
23866;SDS011;12114;53.404;-1.502;2023-08-21T12:34:22;2.90;;;0.80;;
23866;SDS011;12114;53.404;-1.502;2023-08-21T12:37:06;5.90;;;1.10;;
23866;SDS011;12114;53.404;-1.502;2023-08-21T12:39:50;11.90;;;1.67;;
23866;SDS011;12114;53.404;-1.502;2023-08-21T12:42:34;10.48;;;1.13;;
23866;SDS011;12114;53.404;-1.502;2023-08-21T12:45:17;2.45;;;0.80;;
23866;SDS011;12114;53.404;-1.502;2023-08-21T12:48:01;4.45;;;1.00;;
23866;SDS011;12114;53.404;-1.502;2023-08-21T12:50:47;4.35;;;1.02;;
23866;SDS011;12114;53.404;-1.502;2023-08-21T12:53:31;2.20;;;0.88;;
23866;SDS011;12114;53.404;-1.502;2023-08-21T12:56:16;4.95;;;1.30;;
23866;SDS011;12114;53.404;-1.502;2023-08-21T12:59:00;3.25;;;1.02;;
23866;SDS011;12114;53.404;-1.502;2023-08-21T13:01:44;2.47;;;0.80;;
23866;SDS011;12114;53.404;-1.502;2023-08-21T13:04:28;6.47;;;1.23;;
23866;SDS011;12114;53.404;-1.502;2023-08-21T13:07:12;3.85;;;1.38;;
23866;SDS011;12114;53.404;-1.502;2023-08-21T13:09:56;2.63;;;1.10;;
23866;SDS011;12114;53.404;-1.502;2023-08-21T13:12:43;2.70;;;0.80;;
23866;SDS011;12114;53.404;-1.502;2023-08-21T13:15:27;2.83;;;1.27;;
23866;SDS011;12114;53.404;-1.502;2023-08-21T13:18:12;7.15;;;1.45;;
23866;SDS011;12114;53.404;-1.502;2023-08-21T13:20:58;3.80;;;1.17;;
23866;SDS011;12114;53.404;-1.502;2023-08-21T13:23:42;4.93;;;1.10;;
23866;SDS011;12114;53.404;-1.502;2023-08-21T13:26:26;2.97;;;1.10;;
23866;SDS011;12114;53.404;-1.502;2023-08-21T13:29:13;5.82;;;1.30;;
23866;SDS011;12114;53.404;-1.502;2023-08-21T13:31:57;2.40;;;1.20;;
23866;SDS011;12114;53.404;-1.502;2023-08-21T13:34:41;3.42;;;1.60;;
23866;SDS011;12114;53.404;-1.502;2023-08-21T13:37:25;6.60;;;1.85;;
23866;SDS011;12114;53.404;-1.502;2023-08-21T13:40:10;6.45;;;1.50;;
23866;SDS011;12114;53.404;-1.502;2023-08-21T13:42:54;5.40;;;2.03;;
23866;SDS011;12114;53.404;-1.502;2023-08-21T13:45:38;4.65;;;1.80;;
23866;SDS011;12114;53.404;-1.502;2023-08-21T13:48:23;3.42;;;1.70;;
23866;SDS011;12114;53.404;-1.502;2023-08-21T13:51:07;3.35;;;1.70;;
23866;SDS011;12114;53.404;-1.502;2023-08-21T13:53:51;4.03;;;1.67;;
23866;SDS011;12114;53.404;-1.502;2023-08-21T13:56:35;8.32;;;2.30;;
23866;SDS011;12114;53.404;-1.502;2023-08-21T13:59:19;3.33;;;1.88;;
23866;SDS011;12114;53.404;-1.502;2023-08-21T14:02:03;4.60;;;1.75;;
23866;SDS011;12114;53.404;-1.502;2023-08-21T14:04:47;6.05;;;1.50;;
23866;SDS011;12114;53.404;-1.502;2023-08-21T14:07:32;3.53;;;1.55;;
23866;SDS011;12114;53.404;-1.502;2023-08-21T14:10:15;3.50;;;1.25;;
23866;SDS011;12114;53.404;-1.502;2023-08-21T14:13:00;4.72;;;1.20;;
23866;SDS011;12114;53.404;-1.502;2023-08-21T14:15:47;3.00;;;0.68;;
23866;SDS011;12114;53.404;-1.502;2023-08-21T14:18:31;2.22;;;0.80;;
23866;SDS011;12114;53.404;-1.502;2023-08-21T14:21:15;3.17;;;0.85;;
23866;SDS011;12114;53.404;-1.502;2023-08-21T14:23:59;2.47;;;0.80;;
23866;SDS011;12114;53.404;-1.502;2023-08-21T14:26:43;2.47;;;0.45;;
23866;SDS011;12114;53.404;-1.502;2023-08-21T14:29:27;2.38;;;0.85;;
23866;SDS011;12114;53.404;-1.502;2023-08-21T14:32:11;2.97;;;0.80;;
23866;SDS011;12114;53.404;-1.502;2023-08-21T14:34:55;4.57;;;1.10;;
23866;SDS011;12114;53.404;-1.502;2023-08-21T14:37:39;1.77;;;1.00;;
23866;SDS011;12114;53.404;-1.502;2023-08-21T14:40:23;2.58;;;1.00;;
23866;SDS011;12114;53.404;-1.502;2023-08-21T14:43:07;3.50;;;1.10;;
23866;SDS011;12114;53.404;-1.502;2023-08-21T14:45:51;3.15;;;1.20;;
23866;SDS011;12114;53.404;-1.502;2023-08-21T14:48:35;3.63;;;1.17;;
23866;SDS011;12114;53.404;-1.502;2023-08-21T14:51:19;2.67;;;1.10;;
23866;SDS011;12114;53.404;-1.502;2023-08-21T14:54:03;3.75;;;0.85;;
23866;SDS011;12114;53.404;-1.502;2023-08-21T14:56:47;2.92;;;1.17;;
23866;SDS011;12114;53.404;-1.502;2023-08-21T14:59:31;4.55;;;1.20;;
23866;SDS011;12114;53.404;-1.502;2023-08-21T15:02:15;5.47;;;1.50;;
23866;SDS011;12114;53.404;-1.502;2023-08-21T15:05:01;7.10;;;1.27;;
23866;SDS011;12114;53.404;-1.502;2023-08-21T15:07:45;5.07;;;1.13;;
23866;SDS011;12114;53.404;-1.502;2023-08-21T15:10:29;4.18;;;1.45;;
23866;SDS011;12114;53.404;-1.502;2023-08-21T15:13:13;3.60;;;1.25;;
23866;SDS011;12114;53.404;-1.502;2023-08-21T15:15:57;5.30;;;1.38;;
23866;SDS011;12114;53.404;-1.502;2023-08-21T15:18:41;2.53;;;1.30;;
23866;SDS011;12114;53.404;-1.502;2023-08-21T15:21:25;2.83;;;1.30;;
23866;SDS011;12114;53.404;-1.502;2023-08-21T15:24:09;6.20;;;1.33;;
23866;SDS011;12114;53.404;-1.502;2023-08-21T15:26:53;2.80;;;1.40;;
23866;SDS011;12114;53.404;-1.502;2023-08-21T15:29:37;3.47;;;1.10;;
23866;SDS011;12114;53.404;-1.502;2023-08-21T15:32:21;4.40;;;1.23;;
23866;SDS011;12114;53.404;-1.502;2023-08-21T15:35:05;3.55;;;1.10;;
23866;SDS011;12114;53.404;-1.502;2023-08-21T15:37:49;2.00;;;0.80;;
23866;SDS011;12114;53.404;-1.502;2023-08-21T15:40:33;2.97;;;0.90;;
23866;SDS011;12114;53.404;-1.502;2023-08-21T15:43:17;1.95;;;0.95;;
23866;SDS011;12114;53.404;-1.502;2023-08-21T15:46:04;1.92;;;0.80;;
23866;SDS011;12114;53.404;-1.502;2023-08-21T15:48:48;3.63;;;1.00;;
23866;SDS011;12114;53.404;-1.502;2023-08-21T15:51:32;3.53;;;0.95;;
23866;SDS011;12114;53.404;-1.502;2023-08-21T15:54:19;3.05;;;0.88;;
23866;SDS011;12114;53.404;-1.502;2023-08-21T15:57:03;3.28;;;0.88;;
23866;SDS011;12114;53.404;-1.502;2023-08-21T15:59:48;3.88;;;0.80;;
23866;SDS011;12114;53.404;-1.502;2023-08-21T16:02:32;3.47;;;0.90;;
23866;SDS011;12114;53.404;-1.502;2023-08-21T16:05:16;1.40;;;0.70;;
23866;SDS011;12114;53.404;-1.502;2023-08-21T16:07:59;3.35;;;0.80;;
23866;SDS011;12114;53.404;-1.502;2023-08-21T16:10:44;3.65;;;0.60;;
23866;SDS011;12114;53.404;-1.502;2023-08-21T16:13:31;2.85;;;0.70;;
23866;SDS011;12114;53.404;-1.502;2023-08-21T16:16:15;4.10;;;0.80;;
23866;SDS011;12114;53.404;-1.502;2023-08-21T16:18:59;3.65;;;0.77;;
23866;SDS011;12114;53.404;-1.502;2023-08-21T16:21:42;2.03;;;0.70;;
23866;SDS011;12114;53.404;-1.502;2023-08-21T16:24:26;2.00;;;0.57;;
23866;SDS011;12114;53.404;-1.502;2023-08-21T16:27:11;4.63;;;0.80;;
23866;SDS011;12114;53.404;-1.502;2023-08-21T16:29:55;1.67;;;0.70;;